CheckWX is a tool to help pilots better visualize weather data.  It is not intended as a substitute for an official pre-flight weather briefing.

10:21:25 UTC

KMKL METAR
Mc Kellar-Sipes Regional Airport
Jackson, Tennessee, USA
Current

28 mins ago

KMKL 120953Z AUTO 36018G28KT 10SM OVC023 M06/M09 A3044 RMK AO2 PK WND 35028/0946 SLP312 T10561094
Observed
Nov-12 @ 09:53 UTC
Wind
  • 360° at 18 KTS
  • Gusting to 28 KTS
Visibility
10 SM
Flight Rules
MVFR
Cloud Levels
  • Overcast at 2,300' AGL
Temperature
-6°C / 21°F
Dewpoint
-9°C / 16°F
Humidity
80%
Altimeter
30.44" Hg
Pressure
1030.82 hPa
Previous

1 hour ago

KMKL 120853Z AUTO 01016KT 10SM OVC022 M04/M08 A3041 RMK AO2 PK WND 36032/0809 SLP301 T10441078 53016
Observed
Nov-12 @ 08:53 UTC
Wind
  • 010° at 16 KTS
Visibility
10 SM
Flight Rules
MVFR
Cloud Levels
  • Overcast at 2,200' AGL
Temperature
-4°C / 25°F
Dewpoint
-8°C / 18°F
Humidity
74%
Altimeter
30.41" Hg
Pressure
1029.82 hPa
Previous

2 hours ago

KMKL 120753Z AUTO 36021G27KT 10SM OVC020 M04/M07 A3040 RMK AO2 PK WND 01028/0735 SLP296 T10391067
Observed
Nov-12 @ 07:53 UTC
Wind
  • 360° at 21 KTS
  • Gusting to 27 KTS
Visibility
10 SM
Flight Rules
MVFR
Cloud Levels
  • Overcast at 2,000' AGL
Temperature
-4°C / 25°F
Dewpoint
-7°C / 19°F
Humidity
80%
Altimeter
30.4" Hg
Pressure
1029.42 hPa